Nearby METAR Reports

 

KO22 - Columbia, California, USA
Distance from station: SSW 15mi, 25km
Updated: Wed, 18-Oct-2017 12:15am PDT
Clear
Clear
 
Temperature: 50°F , 10°C
Dew Point: 34°F , 1°C
Humidity: 54%
Barometer: 30.11 inHg , 1019.6 hPa
Clouds: Clear
Visibility: 10 miles , 16 km
2017/10/18 07:15 KO22 180715Z AUTO 10SM CLR 10/01 A3011 RMK AO1
KPVF - Placerville, California, USA
Distance from station: NW 39mi, 63km
Updated: Wed, 18-Oct-2017 12:15am PDT
Partly cloudy
Partly cloudy
 Wind from E
Wind: E 9 mph , 15 km/h
Temperature: 63°F , 17°C
Dew Point: 36°F , 2°C
Humidity: 37%
Barometer: 30.12 inHg , 1020 hPa
Clouds: Partly cloudy
Visibility: 10 miles , 16 km
Cloud details: Partly cloudy 3100 ft
2017/10/18 07:15 KPVF 180715Z AUTO 08008KT 10SM SCT031 17/02 A3012 RMK AO1
 
KBAN - Bridgeport(Mcmwt, California, USA
Distance from station: E 45mi, 73km
Updated: Tue, 17-Oct-2017 11:52pm PDT
Clear
Clear
 Wind from calm
Wind: Calm
Temperature: 39°F , 4°C
Dew Point: 21°F , -6°C
Humidity: 48%
Barometer: 30.29 inHg , 1025.7 hPa
Clouds: Clear
Visibility: 10 miles , 16 km
2017/10/18 06:52 KBAN 180652Z AUTO 00000KT 10SM CLR 04/M06 A3029 RMK AO2 SLP186 T00391061
KTVL - South Lake Tahoe, California, USA
Distance from station: NNE 49mi, 78km
Updated: Tue, 17-Oct-2017 11:53pm PDT
Clear
Clear
 Wind from calm
Wind: Calm
Temperature: 30°F , -1°C
Dew Point: 19°F , -7°C
Humidity: 64%
Barometer: 30.30 inHg , 1026.1 hPa
Clouds: Clear
Visibility: 10 miles , 16 km
2017/10/18 06:53 KTVL 180653Z AUTO 00000KT 10SM CLR M01/M07 A3030 RMK AO2 SLP232 T10061067
 
KSCK - Stockton, California, USA
Distance from station: WSW 54mi, 87km
Updated: Tue, 17-Oct-2017 11:55pm PDT
Clear
Clear
 Wind from ENE
Wind: ENE 3 mph , 6 km/h
Temperature: 54°F , 12°C
Dew Point: 41°F , 5°C
Humidity: 63%
Barometer: 30.02 inHg , 1016.6 hPa
Clouds: Clear
Visibility: 8 miles , 13 km
2017/10/18 06:55 KSCK 180655Z AUTO 06003KT 8SM CLR 12/05 A3002 RMK AO2 SLP166 T01170050
KMHR - Mather Field, California, USA
Distance from station: WNW 54mi, 88km
Updated: Tue, 17-Oct-2017 11:30pm PDT
Overcast
Overcast
 Wind from E
Wind: E 3 mph , 6 km/h
Temperature: 57°F , 14°C
Dew Point: 34°F , 1°C
Humidity: 41%
Barometer: 30.02 inHg , 1016.6 hPa
Clouds: Overcast
Visibility: 10 miles , 16 km
Cloud details: Overcast 3300 ft
2017/10/18 06:30 KMHR 180630Z 09003KT 10SM OVC033 14/01 A3002
 
KMOD - Modesto, California, USA
Distance from station: SW 55mi, 88km
Updated: Tue, 17-Oct-2017 11:53pm PDT
Clear
Clear
 Wind from calm
Wind: Calm
Temperature: 57°F , 14°C
Dew Point: 48°F , 9°C
Humidity: 72%
Barometer: 30.02 inHg , 1016.6 hPa
Clouds: Clear
Visibility: 9 miles , 14 km
2017/10/18 06:53 KMOD 180653Z AUTO 00000KT 9SM CLR 14/09 A3002 RMK AO2 SLP165 T01440089
KMER - Merced/Castle Af, California, USA
Distance from station: S 61mi, 98km
Updated: Wed, 18-Oct-2017 12:15am PDT
Clear
Clear
 Wind from WNW
Wind: WNW 5 mph , 7 km/h
Temperature: 57°F , 14°C
Dew Point: 45°F , 7°C
Humidity: 63%
Barometer: 30.02 inHg , 1016.6 hPa
Clouds: Clear
Visibility: 8 miles , 13 km
2017/10/18 07:15 KMER 180715Z AUTO 30004KT 8SM CLR 14/07 A3002 RMK AO1
 
KAUN - Auburn Muni, California, USA
Distance from station: NW 63mi, 101km
Updated: Wed, 18-Oct-2017 12:15am PDT
Clear
Clear
 Wind from calm
Wind: Calm
Temperature: 63°F , 17°C
Barometer: 30.08 inHg , 1018.6 hPa
Clouds: Clear
Visibility: 10 miles , 16 km
2017/10/18 07:15 KAUN 180715Z AUTO 00000KT 10SM CLR 17/ A3008 RMK AO1
KMCC - Mcclellan Afb, California, USA
Distance from station: WNW 64mi, 103km
Updated: Wed, 18-Oct-2017 12:15am PDT
Clear
Clear
 Wind from calm
Wind: Calm
Temperature: 57°F , 14°C
Dew Point: 41°F , 5°C
Humidity: 55%
Barometer: 30.04 inHg , 1017.3 hPa
Clouds: Clear
Visibility: 8 miles , 13 km
2017/10/18 07:15 KMCC 180715Z AUTO 00000KT 8SM CLR 14/05 A3004 RMK AO2
 
KSAC - Sacramento, California, USA
Distance from station: WNW 65mi, 104km
Updated: Tue, 17-Oct-2017 11:53pm PDT
Clear
Clear
 Wind from calm
Wind: Calm
Temperature: 54°F , 12°C
Dew Point: 45°F , 7°C
Humidity: 72%
Barometer: 30.02 inHg , 1016.6 hPa
Clouds: Clear
Visibility: 7 miles , 11 km
2017/10/18 06:53 KSAC 180653Z AUTO 00000KT 7SM CLR 12/07 A3002 RMK AO2 SLP166 T01220072
KMCE - Merced, California, USA
Distance from station: S 67mi, 108km
Updated: Tue, 17-Oct-2017 11:53pm PDT
Clear
Clear
 Wind from calm
Wind: Calm
Temperature: 57°F , 14°C
Dew Point: 41°F , 5°C
Humidity: 55%
Barometer: 30.01 inHg , 1016.3 hPa
Clouds: Clear
Visibility: 7 miles , 11 km
2017/10/18 06:53 KMCE 180653Z AUTO 00000KT 7SM CLR 14/05 A3001 RMK AO2 SLP162 T01390050
 
KLHM - Lincoln, California, USA
Distance from station: NW 71mi, 115km
Updated: Wed, 18-Oct-2017 12:15am PDT
Clear
Clear
 Wind from NE
Wind: NE 7 mph , 11 km/h
Temperature: 50°F , 10°C
Wind Chill: 47°F , 8°C
Dew Point: 34°F , 1°C
Humidity: 54%
Barometer: 30.02 inHg , 1016.6 hPa
Clouds: Clear
Visibility: 10 miles , 16 km
2017/10/18 07:15 KLHM 180715Z AUTO 05006KT 10SM CLR 10/01 A3002 RMK AO1
KCXP - Carson City, Nevada, USA
Distance from station: NNE 72mi, 117km
Updated: Wed, 18-Oct-2017 12:15am PDT
Clear
Clear
 Wind from N
Wind: N 5 mph , 7 km/h
Temperature: 37°F , 3°C
Wind Chill: 33°F , 1°C
Dew Point: 14°F , -10°C
Humidity: 38%
Barometer: 30.23 inHg , 1023.7 hPa
Clouds: Clear
Visibility: 10 miles , 16 km
2017/10/18 07:15 KCXP 180715Z AUTO 35004KT 10SM CLR 03/M10 A3023 RMK AO2
 
KBLU - Emigrant Gap, California, USA
Distance from station: NNW 74mi, 119km
Updated: Tue, 17-Oct-2017 11:52pm PDT
Clear
Clear
 Wind from calm
Wind: Calm
Temperature: 57°F , 14°C
Dew Point: 19°F , -7°C
Humidity: 23%
Barometer: 30.25 inHg , 1024.4 hPa
Clouds: Clear
Visibility: 10 miles , 16 km
2017/10/18 06:52 KBLU 180652Z AUTO 00000KT 10SM CLR 14/M07 A3025 RMK AO2 SLP172 T01391072 TSNO
KSMF - Sacramento/Metro, California, USA
Distance from station: WNW 75mi, 120km
Updated: Tue, 17-Oct-2017 11:53pm PDT
Clear
Clear
 Wind from NNE
Wind: NNE 5 mph , 7 km/h
Temperature: 52°F , 11°C
Dew Point: 39°F , 4°C
Humidity: 62%
Barometer: 30.01 inHg , 1016.3 hPa
Clouds: Clear
Visibility: 9 miles , 14 km
2017/10/18 06:53 KSMF 180653Z 03004KT 9SM CLR 11/04 A3001 RMK AO2 SLP163 T01060039
 
KTRK - Truckee Tahoe, California, USA
Distance from station: N 75mi, 120km
Updated: Wed, 18-Oct-2017 12:15am PDT
Clear
Clear
 Wind from calm
Wind: Calm
Temperature: 27°F , -3°C
Dew Point: 14°F , -10°C
Humidity: 59%
Barometer: 30.29 inHg , 1025.7 hPa
Clouds: Clear
Visibility: 10 miles , 16 km
2017/10/18 07:15 KTRK 180715Z AUTO 00000KT 10SM CLR M03/M10 A3029 RMK AO2
KGOO - Grass Valley, California, USA
Distance from station: NNW 76mi, 122km
Updated: Tue, 17-Oct-2017 3:00pm PDT
NOT Current
Clear
Clear
 Wind from W
Wind: W 5 mph , 7 km/h
Temperature: 75°F , 24°C
Dew Point: 19°F , -7°C
Humidity: 12%
Barometer: 30.15 inHg , 1021 hPa
Clouds: Clear
Visibility: 10 miles , 16 km
2017/10/17 22:00 KGOO 172200Z AUTO 28004KT 10SM CLR 24/M07 A3015 RMK AO1

spacer wunderground wow PWS SWWN Image Map